Terminal Aerodrome Forecast
Issued by NWS

Home | Current Version | Previous Version | Text Only | Print | Product List | Glossary On
Versions: 1 2 3 4 5 6 7 8 9 10 11 12 13 14 15 16 17 18
000
FTUS46 KSEW 220500
TAFHQM
TAF
KHQM 220536Z 2206/2306 23006KT P6SM SCT006 OVC015
      TEMPO 2206/2210 BKN006 OVC015
     FM221600 23006KT P6SM BKN025
     FM221700 23006KT P6SM SCT250
     FM222200 29010KT P6SM SCT250=

USA.gov is the U.S. government's official web portal to all federal, state and local government web resources and services.